sim
Sign-in with your pilot id or email,
or register
Callsign
Passwort

Schedule Details

Flight Number: OEG0523
Departure: Dusseldorf International Airport (EDDL) at 19:00
Arrival: Geneva International Airport (LSGG) at 20:00

Weather Information
Getting current METAR information for EDDL 101650Z 15011KT 4500 -RADZ BKN008 OVC015 09/09 Q1008 NOSIG
Getting current METAR information for LSGG 101650Z 24009KT 9999 FEW080 14/02 Q1012 NOSIG

Schedule Frequency

Route Map